Time;durP1;ratioP1;P1;durP2;ratioP2;P2;SDS_P1;SDS_P2;PMS_P1;PMS_P2;Temp;Humidity;BMP_temperature;BMP_pressure;BME280_temperature;BME280_humidity;BME280_pressure;Samples;Min_cycle;Max_cycle;Signal;HPM_P1;HPM_P2
2022/12/30 00:00:38;;;;;;;18.43;4.73;;;;;;;;;;5055717;28;20178;-72
2022/12/30 00:03:04;;;;;;;11.43;4.00;;;;;;;;;;5053952;28;20643;-73
2022/12/30 00:05:30;;;;;;;16.83;5.00;;;;;;;;;;5055541;28;20194;-72
2022/12/30 00:07:56;;;;;;;23.83;7.20;;;;;;;;;;5055203;28;20286;-71
2022/12/30 00:10:22;;;;;;;19.20;4.03;;;;;;;;;;5054169;28;20259;-71
2022/12/30 00:34:56;;;;;;;16.73;3.70;;;;;;;;;;5056233;28;20177;-71
2022/12/30 00:37:22;;;;;;;17.33;3.77;;;;;;;;;;5055494;28;20620;-72
2022/12/30 00:39:48;;;;;;;13.33;4.30;;;;;;;;;;5055553;28;20732;-71
2022/12/30 00:44:58;;;;;;;16.37;3.67;;;;;;;;;;5055650;28;20217;-71
2022/12/30 00:47:24;;;;;;;17.90;3.80;;;;;;;;;;5057011;28;20186;-70
2022/12/30 00:58:04;;;;;;;18.63;4.13;;;;;;;;;;5055749;28;20217;-71
2022/12/30 01:00:30;;;;;;;17.77;4.30;;;;;;;;;;5054387;28;20174;-71
2022/12/30 01:02:56;;;;;;;16.70;3.90;;;;;;;;;;5055175;28;20175;-71
2022/12/30 01:05:22;;;;;;;20.30;4.20;;;;;;;;;;5055489;28;20182;-71
2022/12/30 01:07:48;;;;;;;19.10;4.00;;;;;;;;;;5055298;28;20198;-71
2022/12/30 01:10:14;;;;;;;16.53;3.97;;;;;;;;;;5053914;28;20174;-71
2022/12/30 01:12:40;;;;;;;20.07;3.90;;;;;;;;;;5053769;28;20232;-72
2022/12/30 01:15:06;;;;;;;21.43;5.23;;;;;;;;;;5054211;28;20232;-70
2022/12/30 01:17:33;;;;;;;15.30;4.00;;;;;;;;;;5055536;28;20205;-72
2022/12/30 01:19:59;;;;;;;12.83;4.03;;;;;;;;;;5055765;28;20237;-70
2022/12/30 01:22:26;;;;;;;15.57;4.10;;;;;;;;;;5053812;28;20205;-71
2022/12/30 01:24:52;;;;;;;13.13;3.87;;;;;;;;;;5055238;28;20178;-72
2022/12/30 01:27:18;;;;;;;19.63;4.73;;;;;;;;;;5054021;28;20206;-71
2022/12/30 01:29:45;;;;;;;19.07;3.93;;;;;;;;;;5055581;28;20309;-71
2022/12/30 01:32:16;;;;;;;17.97;3.90;;;;;;;;;;5054766;28;20258;-71
2022/12/30 01:34:42;;;;;;;21.90;4.73;;;;;;;;;;5054247;28;20581;-71
2022/12/30 01:37:08;;;;;;;17.77;4.07;;;;;;;;;;5055022;28;20221;-72
2022/12/30 01:39:35;;;;;;;15.13;4.07;;;;;;;;;;5053187;28;20656;-71
2022/12/30 01:42:02;;;;;;;16.17;4.40;;;;;;;;;;5055080;28;20178;-71
2022/12/30 01:44:39;;;;;;;14.37;4.40;;;;;;;;;;5054985;28;20183;-71
2022/12/30 01:47:06;;;;;;;19.97;4.50;;;;;;;;;;5055002;28;20236;-72
2022/12/30 01:49:34;;;;;;;21.10;4.50;;;;;;;;;;5055647;28;20257;-72
2022/12/30 01:52:00;;;;;;;15.83;3.43;;;;;;;;;;5054500;28;20623;-72
2022/12/30 01:54:25;;;;;;;14.40;3.67;;;;;;;;;;5055230;28;20178;-72
2022/12/30 01:56:52;;;;;;;19.07;3.90;;;;;;;;;;5057487;28;20202;-72
2022/12/30 01:59:19;;;;;;;15.97;3.47;;;;;;;;;;5058864;28;20222;-71
2022/12/30 02:01:45;;;;;;;14.60;4.27;;;;;;;;;;5058647;28;20257;-72
2022/12/30 02:04:16;;;;;;;17.00;4.43;;;;;;;;;;5058933;28;20260;-71
2022/12/30 02:06:52;;;;;;;16.10;4.33;;;;;;;;;;5058842;28;20201;-72
2022/12/30 02:09:18;;;;;;;18.77;4.43;;;;;;;;;;5057302;28;20554;-71
2022/12/30 02:11:44;;;;;;;16.90;4.17;;;;;;;;;;5056956;28;20183;-72
2022/12/30 02:14:10;;;;;;;14.97;4.47;;;;;;;;;;5058173;28;20197;-72
2022/12/30 02:16:39;;;;;;;17.53;4.17;;;;;;;;;;5057368;28;20260;-71
2022/12/30 02:19:11;;;;;;;21.80;3.80;;;;;;;;;;5056520;28;20678;-72
2022/12/30 02:22:00;;;;;;;17.53;3.80;;;;;;;;;;5057808;28;20257;-72
2022/12/30 02:24:36;;;;;;;14.37;3.67;;;;;;;;;;5049446;28;20194;-71
2022/12/30 02:27:11;;;;;;;13.70;3.80;;;;;;;;;;5057706;28;20193;-72
2022/12/30 02:29:47;;;;;;;13.43;4.00;;;;;;;;;;5057065;28;20535;-71
2022/12/30 02:32:26;;;;;;;16.47;4.37;;;;;;;;;;5058441;28;20181;-72
2022/12/30 02:34:59;;;;;;;13.57;3.73;;;;;;;;;;5058128;28;20173;-71
2022/12/30 02:37:47;;;;;;;14.57;3.63;;;;;;;;;;5057994;28;20201;-68
2022/12/30 02:40:15;;;;;;;12.87;3.43;;;;;;;;;;5057398;28;20166;-72
2022/12/30 02:45:32;;;;;;;17.30;4.27;;;;;;;;;;5058178;28;20702;-71
2022/12/30 02:48:01;;;;;;;13.83;3.97;;;;;;;;;;5057815;28;20195;-72
2022/12/30 02:53:15;;;;;;;18.67;4.37;;;;;;;;;;5058470;28;20182;-71
2022/12/30 02:55:41;;;;;;;16.37;4.43;;;;;;;;;;5057244;28;20189;-69
2022/12/30 02:58:07;;;;;;;16.27;3.53;;;;;;;;;;5057971;28;20244;-71
2022/12/30 03:03:59;;;;;;;15.07;3.70;;;;;;;;;;5058734;28;20178;-70
2022/12/30 03:06:43;;;;;;;14.27;3.57;;;;;;;;;;5059109;28;20159;-71
2022/12/30 03:09:09;;;;;;;8.80;3.17;;;;;;;;;;5057988;28;20178;-71
2022/12/30 03:11:44;;;;;;;11.80;2.90;;;;;;;;;;5059039;28;20189;-71
2022/12/30 03:14:21;;;;;;;14.17;4.13;;;;;;;;;;5057856;28;20184;-69
2022/12/30 03:16:50;;;;;;;16.47;3.60;;;;;;;;;;5058378;28;20263;-69
2022/12/30 03:19:19;;;;;;;16.83;3.80;;;;;;;;;;5057975;28;20205;-70
2022/12/30 03:21:45;;;;;;;10.90;3.30;;;;;;;;;;5058334;28;20181;-71
2022/12/30 03:27:04;;;;;;;13.07;3.53;;;;;;;;;;5058586;28;20229;-70
2022/12/30 03:29:32;;;;;;;18.00;3.50;;;;;;;;;;5058299;28;20178;-70
2022/12/30 03:31:59;;;;;;;14.60;4.37;;;;;;;;;;5058449;28;20225;-72
2022/12/30 03:34:25;;;;;;;13.33;3.47;;;;;;;;;;5057016;28;20186;-70
2022/12/30 03:36:53;;;;;;;21.03;4.50;;;;;;;;;;5058075;28;20202;-70
2022/12/30 03:39:33;;;;;;;12.60;3.40;;;;;;;;;;5057777;28;20237;-70
2022/12/30 03:42:01;;;;;;;17.60;3.83;;;;;;;;;;5056249;28;20208;-70
2022/12/30 03:44:27;;;;;;;17.77;3.50;;;;;;;;;;5057995;28;20175;-70
2022/12/30 03:46:53;;;;;;;18.27;4.17;;;;;;;;;;5058282;28;20684;-71
2022/12/30 03:49:19;;;;;;;16.23;4.30;;;;;;;;;;5058507;28;20259;-71
2022/12/30 03:51:45;;;;;;;18.53;4.37;;;;;;;;;;5058329;28;20641;-70
2022/12/30 03:54:11;;;;;;;21.10;3.87;;;;;;;;;;5057933;28;20175;-70
2022/12/30 03:56:37;;;;;;;18.00;3.50;;;;;;;;;;5058051;28;20256;-71
2022/12/30 03:59:03;;;;;;;20.23;4.17;;;;;;;;;;5058039;28;20212;-70
2022/12/30 04:01:29;;;;;;;15.53;4.07;;;;;;;;;;5057760;28;20213;-69
2022/12/30 04:03:55;;;;;;;17.63;3.53;;;;;;;;;;5058145;28;20198;-70
2022/12/30 04:06:21;;;;;;;17.40;3.27;;;;;;;;;;5057443;28;20665;-71
2022/12/30 04:08:47;;;;;;;15.73;4.27;;;;;;;;;;5056086;28;20186;-71
2022/12/30 04:11:13;;;;;;;15.27;3.30;;;;;;;;;;5057540;28;20178;-71
2022/12/30 04:13:39;;;;;;;14.37;3.33;;;;;;;;;;5057536;28;20181;-70
2022/12/30 04:16:05;;;;;;;13.30;3.97;;;;;;;;;;5055086;28;20221;-71
2022/12/30 04:18:31;;;;;;;21.57;5.10;;;;;;;;;;5055485;28;20572;-70
2022/12/30 04:20:57;;;;;;;11.40;3.60;;;;;;;;;;5056308;28;20281;-70
2022/12/30 04:23:23;;;;;;;15.23;4.00;;;;;;;;;;5057459;28;20703;-70
2022/12/30 04:25:49;;;;;;;17.83;4.00;;;;;;;;;;5057300;28;20658;-72
2022/12/30 04:28:15;;;;;;;18.73;3.57;;;;;;;;;;5057052;28;20197;-69
2022/12/30 04:30:41;;;;;;;19.90;3.90;;;;;;;;;;5057176;28;20178;-71
2022/12/30 04:33:07;;;;;;;17.03;3.53;;;;;;;;;;5057243;28;20594;-71
2022/12/30 04:35:33;;;;;;;12.33;3.27;;;;;;;;;;5056749;28;20179;-70
2022/12/30 04:37:59;;;;;;;17.07;3.90;;;;;;;;;;5056687;28;20221;-71
2022/12/30 04:40:25;;;;;;;15.40;4.10;;;;;;;;;;5056527;28;20202;-70
2022/12/30 04:42:51;;;;;;;16.27;4.10;;;;;;;;;;5056001;28;20638;-71
2022/12/30 04:45:17;;;;;;;15.03;3.87;;;;;;;;;;5055807;28;20174;-70
2022/12/30 04:47:42;;;;;;;11.80;3.97;;;;;;;;;;5055655;28;20202;-71
2022/12/30 04:50:10;;;;;;;26.00;4.93;;;;;;;;;;5056326;28;20657;-69
2022/12/30 04:52:36;;;;;;;14.77;3.80;;;;;;;;;;5056525;28;20174;-70
2022/12/30 04:55:02;;;;;;;16.93;3.87;;;;;;;;;;5055866;28;20197;-70
2022/12/30 04:57:28;;;;;;;19.53;4.73;;;;;;;;;;5057312;28;20221;-69
2022/12/30 04:59:54;;;;;;;20.10;4.80;;;;;;;;;;5054745;28;20685;-68
2022/12/30 05:02:20;;;;;;;24.50;4.40;;;;;;;;;;5055838;28;20179;-68
2022/12/30 05:04:46;;;;;;;18.37;4.57;;;;;;;;;;5056099;28;20197;-70
2022/12/30 05:07:12;;;;;;;19.80;4.27;;;;;;;;;;5055770;28;20221;-71
2022/12/30 05:09:38;;;;;;;19.17;3.83;;;;;;;;;;5055250;28;20182;-71
2022/12/30 05:12:04;;;;;;;15.00;4.50;;;;;;;;;;5055091;28;20244;-69
2022/12/30 05:14:30;;;;;;;17.57;3.97;;;;;;;;;;5054332;28;20178;-70
2022/12/30 05:16:56;;;;;;;17.20;4.63;;;;;;;;;;5055559;28;20217;-69
2022/12/30 05:19:22;;;;;;;20.03;4.20;;;;;;;;;;5056219;28;20205;-69
2022/12/30 05:21:48;;;;;;;18.37;4.67;;;;;;;;;;5055705;28;20175;-70
2022/12/30 05:26:58;;;;;;;19.00;4.63;;;;;;;;;;5056318;28;20244;-71
2022/12/30 05:29:24;;;;;;;26.97;5.70;;;;;;;;;;5055687;28;20634;-71
2022/12/30 05:31:50;;;;;;;25.87;6.27;;;;;;;;;;5054884;28;20262;-70
2022/12/30 05:34:16;;;;;;;22.57;7.00;;;;;;;;;;5055795;28;20182;-70
2022/12/30 05:36:42;;;;;;;25.70;6.37;;;;;;;;;;5055394;28;20206;-70
2022/12/30 05:39:10;;;;;;;20.87;6.80;;;;;;;;;;5055635;28;20597;-71
2022/12/30 05:41:36;;;;;;;25.30;7.07;;;;;;;;;;5055554;28;20170;-71
2022/12/30 05:44:02;;;;;;;23.70;7.63;;;;;;;;;;5055234;28;20257;-70
2022/12/30 05:46:28;;;;;;;24.93;6.97;;;;;;;;;;5054294;28;20209;-71
2022/12/30 05:48:54;;;;;;;21.17;7.17;;;;;;;;;;5055362;28;20186;-70
2022/12/30 05:51:20;;;;;;;30.50;7.30;;;;;;;;;;5055833;28;20323;-70
2022/12/30 05:53:46;;;;;;;27.13;7.57;;;;;;;;;;5056375;28;20201;-70
2022/12/30 05:56:12;;;;;;;30.03;9.03;;;;;;;;;;5055792;28;20194;-69
2022/12/30 05:58:38;;;;;;;27.87;10.10;;;;;;;;;;5055871;28;20669;-71
2022/12/30 06:01:04;;;;;;;27.50;8.67;;;;;;;;;;5055460;28;20185;-70
2022/12/30 06:03:30;;;;;;;26.90;9.20;;;;;;;;;;5054003;28;20178;-70
2022/12/30 06:06:01;;;;;;;25.57;8.70;;;;;;;;;;5053914;28;20175;-71
2022/12/30 06:08:27;;;;;;;23.07;8.33;;;;;;;;;;5055074;28;20709;-69
2022/12/30 06:10:53;;;;;;;25.67;7.90;;;;;;;;;;5054088;28;20183;-71
2022/12/30 06:13:19;;;;;;;26.80;7.80;;;;;;;;;;5055740;28;20641;-70
2022/12/30 06:15:45;;;;;;;16.37;7.30;;;;;;;;;;5054243;28;20193;-71
2022/12/30 06:18:11;;;;;;;28.20;8.83;;;;;;;;;;5055047;28;20221;-71
2022/12/30 06:20:37;;;;;;;22.43;9.40;;;;;;;;;;5055362;28;20175;-69
2022/12/30 06:23:03;;;;;;;26.93;9.03;;;;;;;;;;5055786;28;20645;-70
2022/12/30 06:25:29;;;;;;;24.37;8.40;;;;;;;;;;5055735;28;20174;-70
2022/12/30 06:27:55;;;;;;;21.97;7.77;;;;;;;;;;5055926;28;20569;-71
2022/12/30 06:30:21;;;;;;;22.47;7.23;;;;;;;;;;5054719;28;20175;-68
2022/12/30 06:32:47;;;;;;;23.67;7.67;;;;;;;;;;5054609;28;20550;-71
2022/12/30 06:35:13;;;;;;;22.73;7.17;;;;;;;;;;5054467;28;20186;-71
2022/12/30 06:37:39;;;;;;;28.33;8.30;;;;;;;;;;5054000;28;20218;-71
2022/12/30 06:40:06;;;;;;;26.20;8.40;;;;;;;;;;5054659;28;20202;-75
2022/12/30 06:42:32;;;;;;;24.97;8.83;;;;;;;;;;5056918;28;20180;-69
2022/12/30 06:44:58;;;;;;;32.13;9.50;;;;;;;;;;5058218;28;20595;-70
2022/12/30 06:47:25;;;;;;;24.37;8.57;;;;;;;;;;5058449;28;20252;-71
2022/12/30 06:49:51;;;;;;;28.33;9.23;;;;;;;;;;5059169;28;20182;-70
2022/12/30 06:52:17;;;;;;;23.87;8.50;;;;;;;;;;5059186;28;20175;-71
2022/12/30 06:54:43;;;;;;;30.40;8.03;;;;;;;;;;5058646;28;20594;-70
2022/12/30 06:57:09;;;;;;;24.67;7.97;;;;;;;;;;5056978;28;20632;-71
2022/12/30 06:59:34;;;;;;;22.07;7.97;;;;;;;;;;5057208;28;20211;-70
2022/12/30 07:02:00;;;;;;;24.83;6.90;;;;;;;;;;5058983;28;20559;-71
2022/12/30 07:04:26;;;;;;;25.33;6.10;;;;;;;;;;5058424;28;20205;-71
2022/12/30 07:06:55;;;;;;;14.33;5.57;;;;;;;;;;5057113;28;20202;-71
2022/12/30 07:09:21;;;;;;;14.20;4.67;;;;;;;;;;5058598;28;20189;-71
2022/12/30 07:11:47;;;;;;;15.53;4.80;;;;;;;;;;5058837;28;20179;-71
2022/12/30 07:14:13;;;;;;;13.30;5.67;;;;;;;;;;5056887;28;20649;-71
2022/12/30 07:16:39;;;;;;;18.83;5.53;;;;;;;;;;5057834;28;20214;-71
2022/12/30 07:19:05;;;;;;;21.00;4.87;;;;;;;;;;5057075;28;20280;-70
2022/12/30 07:21:32;;;;;;;12.23;4.20;;;;;;;;;;5057242;28;20178;-70
2022/12/30 07:23:58;;;;;;;17.77;4.57;;;;;;;;;;5056661;28;20236;-71
2022/12/30 07:26:24;;;;;;;10.50;3.83;;;;;;;;;;5057338;28;20186;-71
2022/12/30 07:28:53;;;;;;;17.07;4.13;;;;;;;;;;5057452;28;20273;-71
2022/12/30 07:31:22;;;;;;;20.60;4.17;;;;;;;;;;5057600;28;20185;-70
2022/12/30 07:33:48;;;;;;;21.30;4.47;;;;;;;;;;5057568;28;20178;-71
2022/12/30 07:36:14;;;;;;;12.37;4.00;;;;;;;;;;5057784;28;20217;-69
2022/12/30 07:38:43;;;;;;;18.57;4.87;;;;;;;;;;5056397;28;20214;-70
2022/12/30 07:41:11;;;;;;;14.87;4.33;;;;;;;;;;5057239;28;20196;-69
2022/12/30 07:43:37;;;;;;;16.20;4.73;;;;;;;;;;5057047;28;20184;-69
2022/12/30 07:46:07;;;;;;;17.17;4.57;;;;;;;;;;5056892;28;20178;-69
2022/12/30 07:48:33;;;;;;;14.20;4.53;;;;;;;;;;5056407;28;20206;-69
2022/12/30 07:50:59;;;;;;;14.53;4.20;;;;;;;;;;5058464;28;20183;-69
2022/12/30 07:53:25;;;;;;;13.70;4.37;;;;;;;;;;5056471;28;20182;-71
2022/12/30 07:55:51;;;;;;;14.17;3.90;;;;;;;;;;5056870;28;20178;-72
2022/12/30 07:58:17;;;;;;;17.40;3.87;;;;;;;;;;5056305;28;20276;-70
2022/12/30 08:00:43;;;;;;;14.40;3.87;;;;;;;;;;5058012;28;20524;-70
2022/12/30 08:03:09;;;;;;;15.03;5.40;;;;;;;;;;5057812;28;20686;-70
2022/12/30 08:05:35;;;;;;;9.00;4.07;;;;;;;;;;5057427;28;20178;-71
2022/12/30 08:08:01;;;;;;;16.57;5.30;;;;;;;;;;5057569;28;20198;-69
2022/12/30 08:10:27;;;;;;;40.93;21.07;;;;;;;;;;5057769;28;20611;-69
2022/12/30 08:12:53;;;;;;;43.30;26.27;;;;;;;;;;5056997;28;20175;-73
2022/12/30 08:15:19;;;;;;;22.37;8.20;;;;;;;;;;5056760;28;20248;-70
2022/12/30 08:17:45;;;;;;;14.93;5.60;;;;;;;;;;5056527;28;20221;-72
2022/12/30 08:20:11;;;;;;;11.07;4.63;;;;;;;;;;5055087;28;20226;-72
2022/12/30 08:22:39;;;;;;;12.93;5.03;;;;;;;;;;5056576;28;20534;-71
2022/12/30 08:25:05;;;;;;;11.77;4.50;;;;;;;;;;5056521;28;20246;-70
2022/12/30 08:27:32;;;;;;;13.67;4.47;;;;;;;;;;5056354;28;20227;-70
2022/12/30 08:29:58;;;;;;;10.57;5.13;;;;;;;;;;5056955;28;20185;-70
2022/12/30 08:32:24;;;;;;;14.63;4.57;;;;;;;;;;5054989;28;20182;-70
2022/12/30 08:34:50;;;;;;;13.17;6.07;;;;;;;;;;5053989;28;20217;-73
2022/12/30 08:37:16;;;;;;;12.90;4.70;;;;;;;;;;5053749;28;20198;-73
2022/12/30 08:39:42;;;;;;;13.10;4.87;;;;;;;;;;5055854;28;20232;-71
2022/12/30 08:42:08;;;;;;;12.07;5.47;;;;;;;;;;5056104;28;20201;-71
2022/12/30 08:44:34;;;;;;;14.43;4.33;;;;;;;;;;5054442;28;20183;-73
2022/12/30 08:47:00;;;;;;;8.00;4.37;;;;;;;;;;5053706;28;20256;-73
2022/12/30 08:49:26;;;;;;;15.27;4.67;;;;;;;;;;5053890;28;20185;-70
2022/12/30 08:51:52;;;;;;;11.97;3.77;;;;;;;;;;5054777;28;20179;-72
2022/12/30 08:54:18;;;;;;;16.13;4.30;;;;;;;;;;5054717;28;20182;-72
2022/12/30 08:56:45;;;;;;;13.47;4.00;;;;;;;;;;5054801;28;20277;-71
2022/12/30 08:59:12;;;;;;;8.10;3.47;;;;;;;;;;5054853;28;20201;-72
2022/12/30 09:01:40;;;;;;;12.63;4.00;;;;;;;;;;5053741;28;20183;-72
2022/12/30 09:04:06;;;;;;;12.73;4.50;;;;;;;;;;5054884;28;20171;-74
2022/12/30 09:06:32;;;;;;;14.93;4.37;;;;;;;;;;5053816;28;20208;-72
2022/12/30 09:08:59;;;;;;;10.57;4.20;;;;;;;;;;5054789;28;20178;-72
2022/12/30 09:11:29;;;;;;;9.33;3.80;;;;;;;;;;5054673;28;20608;-73
2022/12/30 09:13:56;;;;;;;7.37;4.53;;;;;;;;;;5055317;28;20538;-71
2022/12/30 09:16:23;;;;;;;12.37;4.10;;;;;;;;;;5054759;28;20198;-73
2022/12/30 09:18:49;;;;;;;12.20;4.53;;;;;;;;;;5054856;28;20193;-71
2022/12/30 09:21:15;;;;;;;11.67;4.10;;;;;;;;;;5053334;28;20212;-72
2022/12/30 09:23:41;;;;;;;9.47;3.40;;;;;;;;;;5054720;28;20186;-72
2022/12/30 09:26:08;;;;;;;11.40;3.43;;;;;;;;;;5054872;28;20542;-73
2022/12/30 09:28:34;;;;;;;14.03;5.43;;;;;;;;;;5054467;28;20202;-71
2022/12/30 09:31:00;;;;;;;9.97;4.47;;;;;;;;;;5053324;28;20186;-72
2022/12/30 09:33:26;;;;;;;10.47;3.63;;;;;;;;;;5054902;28;20182;-73
2022/12/30 09:35:52;;;;;;;5.80;3.17;;;;;;;;;;5054826;28;20182;-72
2022/12/30 09:38:18;;;;;;;11.97;5.43;;;;;;;;;;5053584;28;20251;-71
2022/12/30 09:40:51;;;;;;;17.67;6.10;;;;;;;;;;5052893;28;20182;-72
2022/12/30 09:43:22;;;;;;;13.67;4.73;;;;;;;;;;5054312;28;20182;-70
2022/12/30 09:45:53;;;;;;;10.67;5.53;;;;;;;;;;5054740;28;20638;-71
2022/12/30 09:48:25;;;;;;;11.67;4.67;;;;;;;;;;5052823;28;20206;-71
2022/12/30 09:50:58;;;;;;;9.00;3.37;;;;;;;;;;5054252;28;20189;-72
2022/12/30 09:53:36;;;;;;;7.70;3.10;;;;;;;;;;5054287;28;20208;-72
2022/12/30 09:56:03;;;;;;;7.57;2.80;;;;;;;;;;5053615;28;20155;-70
2022/12/30 09:58:30;;;;;;;5.67;2.73;;;;;;;;;;5053267;28;20213;-70
2022/12/30 10:01:19;;;;;;;11.10;2.23;;;;;;;;;;5054563;28;20249;-70
2022/12/30 10:03:45;;;;;;;8.57;2.80;;;;;;;;;;5053795;28;20178;-71
2022/12/30 10:06:19;;;;;;;9.90;2.70;;;;;;;;;;5053578;28;20257;-71
2022/12/30 10:09:03;;;;;;;10.17;2.73;;;;;;;;;;5053269;28;20286;-71
2022/12/30 10:11:34;;;;;;;9.50;2.13;;;;;;;;;;5053234;28;20305;-72
2022/12/30 10:14:07;;;;;;;10.57;2.97;;;;;;;;;;5052000;28;20684;-73
2022/12/30 10:16:44;;;;;;;9.30;2.80;;;;;;;;;;5053594;28;20197;-71
2022/12/30 10:19:16;;;;;;;8.93;3.10;;;;;;;;;;5057022;28;20749;-72
2022/12/30 10:22:01;;;;;;;6.57;3.10;;;;;;;;;;5057300;28;20177;-72
2022/12/30 10:24:27;;;;;;;6.50;2.40;;;;;;;;;;5056911;28;20175;-71
2022/12/30 10:26:55;;;;;;;8.57;2.90;;;;;;;;;;5057315;28;20198;-74
2022/12/30 10:29:24;;;;;;;6.53;2.87;;;;;;;;;;5056784;28;20189;-73
2022/12/30 10:31:51;;;;;;;6.30;2.73;;;;;;;;;;5056722;28;20588;-73
2022/12/30 10:34:18;;;;;;;9.17;3.17;;;;;;;;;;5057054;28;20184;-72
2022/12/30 10:36:57;;;;;;;8.73;2.30;;;;;;;;;;5056827;28;20190;-71
2022/12/30 10:39:25;;;;;;;8.93;3.63;;;;;;;;;;5056646;28;20328;-71
2022/12/30 10:42:12;;;;;;;9.20;3.73;;;;;;;;;;5056463;28;20178;-71
2022/12/30 10:44:46;;;;;;;13.37;4.63;;;;;;;;;;5026123;28;20294;-72
2022/12/30 10:47:31;;;;;;;17.00;7.00;;;;;;;;;;5056378;28;20197;-72
2022/12/30 10:50:11;;;;;;;20.47;8.23;;;;;;;;;;5054966;28;20186;-70
2022/12/30 10:52:37;;;;;;;19.43;8.33;;;;;;;;;;5056450;28;20200;-73
2022/12/30 10:55:18;;;;;;;18.83;7.67;;;;;;;;;;5055084;28;20183;-72
2022/12/30 10:57:44;;;;;;;14.60;6.97;;;;;;;;;;5056346;28;20198;-72
2022/12/30 11:00:11;;;;;;;17.13;8.07;;;;;;;;;;5056347;28;20287;-71
2022/12/30 11:02:38;;;;;;;17.07;6.50;;;;;;;;;;5055180;28;20265;-71
2022/12/30 11:05:24;;;;;;;14.17;5.83;;;;;;;;;;5056313;28;20174;-71
2022/12/30 11:07:57;;;;;;;8.50;3.80;;;;;;;;;;5054659;28;20233;-71
2022/12/30 11:10:23;;;;;;;6.90;2.73;;;;;;;;;;5056481;28;20208;-70
2022/12/30 11:15:48;;;;;;;12.67;4.50;;;;;;;;;;5056079;28;20166;-71
2022/12/30 11:18:16;;;;;;;13.13;4.40;;;;;;;;;;5055734;28;20229;-70
2022/12/30 11:20:43;;;;;;;9.10;2.93;;;;;;;;;;5056173;28;20193;-70
2022/12/30 11:23:26;;;;;;;10.30;3.73;;;;;;;;;;5055821;28;20175;-71
2022/12/30 11:25:52;;;;;;;5.80;2.63;;;;;;;;;;5055733;28;20278;-71
2022/12/30 11:28:20;;;;;;;11.23;2.97;;;;;;;;;;5054614;28;20616;-71
2022/12/30 11:30:52;;;;;;;4.90;2.23;;;;;;;;;;5055547;28;20187;-69
2022/12/30 11:33:22;;;;;;;8.13;2.67;;;;;;;;;;5055829;28;20257;-70
2022/12/30 11:35:49;;;;;;;6.10;2.10;;;;;;;;;;5055691;28;20197;-70
2022/12/30 11:38:27;;;;;;;13.03;2.77;;;;;;;;;;5055308;28;20710;-70
2022/12/30 11:40:53;;;;;;;6.30;2.50;;;;;;;;;;5055778;28;20154;-70
2022/12/30 11:43:20;;;;;;;6.73;2.20;;;;;;;;;;5055974;28;20253;-70
2022/12/30 11:45:53;;;;;;;7.63;3.87;;;;;;;;;;5055366;28;20179;-71
2022/12/30 11:48:27;;;;;;;12.10;5.30;;;;;;;;;;5054207;28;20577;-71
2022/12/30 11:50:54;;;;;;;7.70;2.60;;;;;;;;;;5055961;28;20614;-71
2022/12/30 11:53:20;;;;;;;9.23;2.17;;;;;;;;;;5055470;28;20232;-72
2022/12/30 11:55:52;;;;;;;3.33;1.83;;;;;;;;;;5055669;28;20641;-71
2022/12/30 11:58:18;;;;;;;6.20;2.37;;;;;;;;;;5055131;28;20209;-70
2022/12/30 12:00:46;;;;;;;7.37;2.43;;;;;;;;;;5055688;28;20274;-71
2022/12/30 12:03:16;;;;;;;7.17;2.30;;;;;;;;;;5055478;28;20207;-72
2022/12/30 12:05:43;;;;;;;7.37;2.17;;;;;;;;;;5055713;28;20253;-73
2022/12/30 12:08:22;;;;;;;2.77;2.17;;;;;;;;;;5054051;28;20206;-72
2022/12/30 12:10:51;;;;;;;6.03;2.57;;;;;;;;;;5055301;28;20539;-72
2022/12/30 12:13:17;;;;;;;6.43;2.10;;;;;;;;;;5055278;28;20178;-71
2022/12/30 12:15:45;;;;;;;6.33;2.80;;;;;;;;;;5053688;28;20174;-70
2022/12/30 12:18:29;;;;;;;6.03;2.20;;;;;;;;;;5054786;28;20221;-70
2022/12/30 12:21:16;;;;;;;8.70;2.77;;;;;;;;;;5054873;28;20692;-71
2022/12/30 12:23:46;;;;;;;5.40;2.93;;;;;;;;;;5055006;28;20182;-70
2022/12/30 12:26:32;;;;;;;8.10;4.83;;;;;;;;;;5056117;28;20171;-70
2022/12/30 12:28:58;;;;;;;10.57;2.90;;;;;;;;;;5054663;28;20183;-71
2022/12/30 12:31:27;;;;;;;6.00;4.17;;;;;;;;;;5053504;28;20693;-71
2022/12/30 12:33:59;;;;;;;5.87;2.30;;;;;;;;;;5054615;28;20715;-70
2022/12/30 12:36:39;;;;;;;6.63;2.23;;;;;;;;;;5054558;28;20189;-70
2022/12/30 12:39:12;;;;;;;8.93;3.00;;;;;;;;;;5054371;28;20654;-71
2022/12/30 12:41:51;;;;;;;5.13;2.63;;;;;;;;;;5054617;28;20174;-69
2022/12/30 12:44:17;;;;;;;8.23;2.97;;;;;;;;;;5054701;28;20162;-71
2022/12/30 12:46:43;;;;;;;8.93;3.30;;;;;;;;;;5054138;28;20206;-69
2022/12/30 12:49:28;;;;;;;7.50;2.70;;;;;;;;;;5054192;28;20190;-71
2022/12/30 12:52:03;;;;;;;10.33;2.30;;;;;;;;;;5054605;28;20186;-70
2022/12/30 12:54:40;;;;;;;5.23;2.20;;;;;;;;;;5054418;28;20182;-71
2022/12/30 12:57:17;;;;;;;6.97;2.40;;;;;;;;;;5054198;28;20571;-71
2022/12/30 13:00:07;;;;;;;7.70;2.70;;;;;;;;;;5052880;28;20561;-71
2022/12/30 13:02:35;;;;;;;8.10;2.87;;;;;;;;;;5054326;28;20171;-70
2022/12/30 13:05:10;;;;;;;5.00;1.80;;;;;;;;;;5054312;28;20182;-70
2022/12/30 13:07:39;;;;;;;4.03;2.13;;;;;;;;;;5052856;28;20613;-70
2022/12/30 13:10:20;;;;;;;5.90;2.33;;;;;;;;;;5052666;28;20182;-70
2022/12/30 13:12:49;;;;;;;7.03;2.73;;;;;;;;;;5054429;28;20630;-70
2022/12/30 13:15:29;;;;;;;7.00;2.70;;;;;;;;;;5054016;28;20186;-71
2022/12/30 13:17:58;;;;;;;7.33;2.57;;;;;;;;;;5052683;28;20218;-70
2022/12/30 13:20:29;;;;;;;6.67;2.60;;;;;;;;;;5054383;28;20212;-71
2022/12/30 13:22:57;;;;;;;5.23;2.97;;;;;;;;;;5054354;28;20637;-70
2022/12/30 13:25:27;;;;;;;6.60;2.53;;;;;;;;;;5054152;28;20646;-72
2022/12/30 13:27:54;;;;;;;8.83;2.83;;;;;;;;;;5053677;28;20216;-70
2022/12/30 13:30:21;;;;;;;5.67;2.53;;;;;;;;;;5053148;28;20273;-71
2022/12/30 13:32:53;;;;;;;5.03;2.17;;;;;;;;;;5052617;28;20186;-70
2022/12/30 13:35:22;;;;;;;2.37;2.00;;;;;;;;;;5053672;28;20178;-70
2022/12/30 13:37:54;;;;;;;6.07;2.70;;;;;;;;;;5053846;28;20281;-71
2022/12/30 13:40:21;;;;;;;7.73;2.80;;;;;;;;;;5053974;28;20191;-71
2022/12/30 13:42:50;;;;;;;9.30;3.00;;;;;;;;;;5053801;28;20249;-69
2022/12/30 13:45:27;;;;;;;6.87;2.47;;;;;;;;;;5052891;28;20174;-71
2022/12/30 13:48:05;;;;;;;4.30;2.53;;;;;;;;;;5055060;28;20234;-71
2022/12/30 13:50:32;;;;;;;8.57;3.40;;;;;;;;;;5052308;28;20178;-70
2022/12/30 13:52:59;;;;;;;4.83;2.47;;;;;;;;;;5051775;28;20182;-71
2022/12/30 13:55:28;;;;;;;9.53;3.30;;;;;;;;;;5052620;28;20185;-72
2022/12/30 13:57:59;;;;;;;6.63;3.03;;;;;;;;;;5053619;28;20190;-71
2022/12/30 14:00:33;;;;;;;7.67;2.63;;;;;;;;;;5053851;28;20198;-71
2022/12/30 14:03:10;;;;;;;9.83;4.03;;;;;;;;;;5053456;28;20664;-71
2022/12/30 14:05:39;;;;;;;9.43;4.83;;;;;;;;;;5054062;28;20158;-71
2022/12/30 14:08:20;;;;;;;8.57;4.30;;;;;;;;;;5053409;28;20285;-70
2022/12/30 14:10:54;;;;;;;10.23;3.43;;;;;;;;;;5053815;28;20162;-73
2022/12/30 14:13:25;;;;;;;5.80;2.80;;;;;;;;;;5053643;28;20170;-70
2022/12/30 14:15:56;;;;;;;8.80;3.27;;;;;;;;;;5053231;28;20650;-69
2022/12/30 14:18:22;;;;;;;6.03;2.30;;;;;;;;;;5053255;28;20229;-71
2022/12/30 14:21:00;;;;;;;5.70;2.53;;;;;;;;;;5053463;28;20646;-70
2022/12/30 14:23:35;;;;;;;7.10;2.70;;;;;;;;;;5052293;28;20178;-71
2022/12/30 14:26:28;;;;;;;5.13;2.20;;;;;;;;;;5053490;28;20178;-71
2022/12/30 14:28:58;;;;;;;3.23;2.43;;;;;;;;;;5052154;28;20186;-73
2022/12/30 14:31:26;;;;;;;6.07;2.20;;;;;;;;;;5051836;28;20242;-71
2022/12/30 14:33:53;;;;;;;3.50;2.23;;;;;;;;;;5053355;28;20213;-71
2022/12/30 14:36:20;;;;;;;7.43;2.87;;;;;;;;;;5053122;28;20213;-69
2022/12/30 14:38:46;;;;;;;5.97;2.63;;;;;;;;;;5052976;28;20195;-70
2022/12/30 14:41:14;;;;;;;5.20;2.40;;;;;;;;;;5051830;28;20182;-70
2022/12/30 14:43:43;;;;;;;3.27;2.03;;;;;;;;;;5052962;28;20178;-71
2022/12/30 14:46:27;;;;;;;6.07;2.70;;;;;;;;;;5053136;28;20652;-70
2022/12/30 14:49:05;;;;;;;10.57;2.67;;;;;;;;;;5053170;28;20182;-69
2022/12/30 14:51:32;;;;;;;6.23;2.87;;;;;;;;;;5052925;28;20231;-72
2022/12/30 14:53:58;;;;;;;6.33;3.37;;;;;;;;;;5052336;28;20186;-72
2022/12/30 14:56:25;;;;;;;7.10;2.83;;;;;;;;;;5053844;28;20634;-72
2022/12/30 14:58:52;;;;;;;5.50;3.20;;;;;;;;;;5053167;28;20224;-70
2022/12/30 15:01:19;;;;;;;7.90;2.10;;;;;;;;;;5053408;28;20179;-69
2022/12/30 15:03:45;;;;;;;6.13;2.70;;;;;;;;;;5053010;28;20240;-71
2022/12/30 15:06:12;;;;;;;7.03;2.70;;;;;;;;;;5055950;28;20339;-71
2022/12/30 15:08:40;;;;;;;9.57;3.10;;;;;;;;;;5056526;28;20202;-72
2022/12/30 15:11:08;;;;;;;8.77;2.77;;;;;;;;;;5056386;28;20171;-70
2022/12/30 15:13:48;;;;;;;8.23;3.77;;;;;;;;;;5055034;28;20186;-70
2022/12/30 15:16:14;;;;;;;6.67;3.27;;;;;;;;;;5056673;28;20588;-71
2022/12/30 15:18:42;;;;;;;9.50;3.50;;;;;;;;;;5056804;28;20202;-70
2022/12/30 15:21:27;;;;;;;10.50;3.10;;;;;;;;;;5056599;28;20198;-66
2022/12/30 15:24:02;;;;;;;6.90;3.00;;;;;;;;;;5058108;28;20228;-68
2022/12/30 15:26:29;;;;;;;9.33;4.17;;;;;;;;;;5058393;28;20212;-69
2022/12/30 15:28:56;;;;;;;9.83;4.97;;;;;;;;;;5058496;28;20689;-68
2022/12/30 15:31:26;;;;;;;9.43;4.93;;;;;;;;;;5058213;28;20183;-68
2022/12/30 15:33:56;;;;;;;10.47;4.77;;;;;;;;;;5057985;28;20190;-68